Weather History for Madison, MN

Change the Weather History Date:

Thursday, May 9, 2013

  Actual Average (KAQP) Record (KAQP)
Temperature  
Mean Temperature 55 °F -  
Max Temperature 62 °F 64 °F 82 °F (2001)
Min Temperature 48 °F 41 °F 32 °F (1997)
Degree Days  
Heating Degree Days 10    
Growing Degree Days 5 (Base 50)    
Moisture  
Dew Point 48 °F    
Average Humidity 79    
Maximum Humidity 94    
Minimum Humidity 62    
Precipitation  
Precipitation 0.07 in - - ()
Sea Level Pressure  
Sea Level Pressure 30.06 in    
Wind  
Wind Speed 10 mph (NE)    
Max Wind Speed 20 mph    
Max Gust Speed 24 mph    
Visibility 9 miles    
Events Rain    
Averages and records for this station are not official NWS values.
T = Trace of Precipitation, MM = Missing Value Source: NWS Daily Summary

Daily Weather History Graph

Daily Weather History Graph

Search for Another Location

Airport:

Trip Planner

Search our weather history database for the weather conditions in past years. The results will help you decide how hot, cold, wet, or windy it might be!

Date:

Astronomy

May. 09, 2013 Rise Set
Actual Time 6:02 AM CDT 8:40 PM CDT
Civil Twilight 5:29 AM CDT 9:13 PM CDT
Nautical Twilight 4:47 AM CDT 9:56 PM CDT
Astronomical Twilight 3:59 AM CDT 10:44 PM CDT
Moon 5:49 AM CDT (5/9) 8:36 PM CDT (5/9)
Length of Visible Light 15h 44m
Length of Day
14h 37m
Waning Crescent, 0% of the Moon is Illuminated
May 9
Waning Crescent
May 9
New
May 17
First Quarter
May 24
Full
May 31
Last Quarter

Hourly Weather History & Observations

Time (CDT) Temp. Dew Point Humidity Pressure Visibility Wind Dir Wind Speed Gust Speed Precip Events Conditions
12:14 AM 55.4 °F 51.8 °F 88% 30.02 in 7.0 mi NE 8.1 mph - 0.01 in Rain Light Rain
12:34 AM 55.4 °F 51.8 °F 88% 30.02 in 10.0 mi NE 8.1 mph - 0.01 in Rain Light Rain
12:53 AM 55.4 °F 51.8 °F 88% 30.02 in 10.0 mi NE 8.1 mph - 0.03 in Rain Light Rain
1:14 AM 55.4 °F 51.8 °F 88% 30.02 in 7.0 mi NE 5.8 mph - 0.01 in Rain Light Rain
1:34 AM 55.4 °F 51.8 °F 88% 30.01 in 7.0 mi NNE 6.9 mph - 0.01 in Rain Light Rain
1:53 AM 53.6 °F 51.8 °F 94% 30.01 in 7.0 mi NNE 6.9 mph - 0.01 in   Light Drizzle
2:14 AM 55.4 °F 51.8 °F 88% 30.01 in 7.0 mi NNE 5.8 mph - N/A   Overcast
2:34 AM 55.4 °F 51.8 °F 88% 30.01 in 10.0 mi NE 5.8 mph - N/A Rain Light Rain
2:53 AM 53.6 °F 51.8 °F 94% 30.01 in 10.0 mi NNE 5.8 mph - N/A   Overcast
3:14 AM 53.6 °F 51.8 °F 94% 30.01 in 10.0 mi North 5.8 mph - N/A   Overcast
3:33 AM 53.6 °F 51.8 °F 94% 30.01 in 7.0 mi North 6.9 mph - N/A   Overcast
3:54 AM 53.6 °F 51.8 °F 94% 30.01 in 7.0 mi North 5.8 mph - N/A   Overcast
4:14 AM 53.6 °F 51.8 °F 94% 30.01 in 5.0 mi NNW 6.9 mph - N/A   Overcast
4:33 AM 53.6 °F 51.8 °F 94% 30.01 in 7.0 mi North 9.2 mph - N/A   Overcast
4:54 AM 53.6 °F 51.8 °F 94% 30.01 in 5.0 mi NNW 11.5 mph - N/A Rain Rain
5:14 AM 53.6 °F 51.8 °F 94% 30.01 in 5.0 mi North 10.4 mph - N/A   Light Drizzle
5:33 AM 53.6 °F 51.8 °F 94% 30.01 in 5.0 mi North 11.5 mph - N/A   Mostly Cloudy
5:54 AM 53.6 °F 51.8 °F 94% 30.01 in 7.0 mi North 10.4 mph - N/A   Mostly Cloudy
6:14 AM 53.6 °F 50.0 °F 88% 30.02 in 7.0 mi NNW 8.1 mph - N/A Rain Light Rain
6:33 AM 51.8 °F 48.2 °F 88% 30.02 in 7.0 mi NNW 12.7 mph - N/A   Drizzle
6:54 AM 50.0 °F 46.4 °F 87% 30.03 in 4.0 mi NNW 13.8 mph - 0.01 in   Heavy Drizzle
7:14 AM 50.0 °F 46.4 °F 87% 30.03 in 7.0 mi NNW 12.7 mph - N/A Rain Rain
7:33 AM 48.2 °F 46.4 °F 93% 30.04 in 3.0 mi NNW 12.7 mph - 0.01 in Rain Light Rain
7:54 AM 48.2 °F 46.4 °F 93% 30.05 in 4.0 mi NNW 11.5 mph - 0.01 in   Drizzle
8:14 AM 48.2 °F 46.4 °F 93% 30.05 in 5.0 mi NW 13.8 mph - N/A   Drizzle
8:33 AM 48.2 °F 46.4 °F 93% 30.06 in 10.0 mi NW 11.5 mph - N/A   Overcast
8:54 AM 48.2 °F 44.6 °F 87% 30.06 in 10.0 mi NNW 11.5 mph - N/A   Light Drizzle
9:14 AM 48.2 °F 44.6 °F 87% 30.06 in 10.0 mi NNW 12.7 mph - N/A   Drizzle
9:33 AM 48.2 °F 44.6 °F 87% 30.07 in 7.0 mi NW 11.5 mph - N/A   Drizzle
9:54 AM 48.2 °F 44.6 °F 87% 30.07 in 10.0 mi NNW 13.8 mph - 0.01 in   Mostly Cloudy
10:33 AM 48.2 °F 44.6 °F 87% 30.08 in 10.0 mi NNW 12.7 mph 19.6 mph N/A   Mostly Cloudy
10:54 AM 48.2 °F 44.6 °F 87% 30.08 in 10.0 mi NNW 12.7 mph - N/A   Overcast
11:14 AM 48.2 °F 44.6 °F 87% 30.09 in 10.0 mi NNW 6.9 mph - N/A Rain Light Rain
11:33 AM 51.8 °F 44.6 °F 76% 30.08 in 10.0 mi NNW 9.2 mph - N/A   Overcast
12:14 PM 55.4 °F 46.4 °F 72% 30.07 in 10.0 mi North 11.5 mph - N/A   Scattered Clouds
12:33 PM 59.0 °F 48.2 °F 67% 30.07 in 10.0 mi North 10.4 mph - N/A   Scattered Clouds
12:54 PM 60.8 °F 48.2 °F 63% 30.06 in 10.0 mi North 8.1 mph - N/A   Clear
1:14 PM 60.8 °F 50.0 °F 68% 30.06 in 10.0 mi NNE 5.8 mph - N/A   Scattered Clouds
1:33 PM 62.6 °F 50.0 °F 63% 30.05 in 10.0 mi ENE 8.1 mph - N/A   Mostly Cloudy
1:54 PM 62.6 °F 51.8 °F 68% 30.05 in 10.0 mi ENE 9.2 mph - N/A   Mostly Cloudy
2:33 PM 62.6 °F 51.8 °F 68% 30.05 in 10.0 mi ENE 8.1 mph - N/A   Mostly Cloudy
2:54 PM 62.6 °F 51.8 °F 68% 30.05 in 10.0 mi East 9.2 mph - N/A   Scattered Clouds
3:14 PM 62.6 °F 51.8 °F 68% 30.05 in 10.0 mi East 9.2 mph - N/A   Scattered Clouds
3:33 PM 62.6 °F 53.6 °F 72% 30.05 in 10.0 mi East 9.2 mph 16.1 mph N/A   Scattered Clouds
3:54 PM 60.8 °F 51.8 °F 72% 30.05 in 10.0 mi East 11.5 mph - N/A   Scattered Clouds
4:14 PM 60.8 °F 51.8 °F 72% 30.05 in 10.0 mi East 11.5 mph - N/A   Scattered Clouds
4:33 PM 60.8 °F 51.8 °F 72% 30.05 in 10.0 mi East 15.0 mph - N/A   Scattered Clouds
4:54 PM 62.6 °F 51.8 °F 68% 30.05 in 10.0 mi East 15.0 mph - N/A   Scattered Clouds
5:13 PM 60.8 °F 50.0 °F 68% 30.05 in 10.0 mi East 17.3 mph 23.0 mph N/A   Scattered Clouds
5:34 PM 59.0 °F 50.0 °F 72% 30.05 in 10.0 mi East 13.8 mph - N/A   Scattered Clouds
5:54 PM 59.0 °F 50.0 °F 72% 30.06 in 10.0 mi East 11.5 mph - N/A   Scattered Clouds
6:13 PM 59.0 °F 50.0 °F 72% 30.05 in 10.0 mi ENE 13.8 mph - N/A   Scattered Clouds
6:33 PM 59.0 °F 48.2 °F 67% 30.06 in 10.0 mi East 15.0 mph - N/A   Scattered Clouds
6:54 PM 59.0 °F 48.2 °F 67% 30.06 in 10.0 mi East 15.0 mph - N/A   Scattered Clouds
7:13 PM 57.2 °F 48.2 °F 72% 30.07 in 10.0 mi East 13.8 mph - N/A   Scattered Clouds
7:33 PM 57.2 °F 48.2 °F 72% 30.07 in 10.0 mi East 13.8 mph - N/A   Scattered Clouds
7:54 PM 57.2 °F 46.4 °F 67% 30.08 in 10.0 mi East 16.1 mph 20.7 mph N/A   Scattered Clouds
8:13 PM 55.4 °F 44.6 °F 67% 30.09 in 10.0 mi ENE 13.8 mph - N/A   Mostly Cloudy
8:33 PM 53.6 °F 44.6 °F 72% 30.10 in 10.0 mi East 12.7 mph - N/A   Overcast
8:54 PM 53.6 °F 42.8 °F 67% 30.11 in 10.0 mi East 15.0 mph 18.4 mph N/A   Overcast
9:13 PM 51.8 °F 42.8 °F 71% 30.12 in 10.0 mi East 13.8 mph - N/A   Overcast
9:33 PM 51.8 °F 42.8 °F 71% 30.12 in 10.0 mi East 16.1 mph - N/A   Overcast
9:54 PM 51.8 °F 42.8 °F 71% 30.13 in 10.0 mi East 18.4 mph - N/A   Overcast
10:13 PM 51.8 °F 41.0 °F 67% 30.14 in 10.0 mi East 19.6 mph 24.2 mph N/A   Overcast
10:34 PM 50.0 °F 41.0 °F 71% 30.14 in 10.0 mi East 16.1 mph - N/A   Overcast
10:54 PM 50.0 °F 41.0 °F 71% 30.14 in 10.0 mi East 13.8 mph 19.6 mph N/A   Mostly Cloudy
11:13 PM 48.2 °F 39.2 °F 71% 30.14 in 10.0 mi East 13.8 mph - N/A   Mostly Cloudy
11:34 PM 48.2 °F 37.4 °F 66% 30.14 in 10.0 mi East 12.7 mph - N/A   Overcast
11:54 PM 48.2 °F 35.6 °F 62% 30.15 in 10.0 mi East 9.2 mph - N/A   Overcast